sensor_id;sensor_type;location;lat;lon;timestamp;pressure;altitude;pressure_sealevel;temperature;humidity
6150;BME280;3106;42.670;23.318;2024-02-14T00:01:04;94134.28;;;6.30;100.00
6150;BME280;3106;42.670;23.318;2024-02-14T00:03:34;94129.16;;;6.25;100.00
6150;BME280;3106;42.670;23.318;2024-02-14T00:06:03;94140.44;;;6.22;100.00
6150;BME280;3106;42.670;23.318;2024-02-14T00:08:32;94084.59;;;5.90;100.00
6150;BME280;3106;42.670;23.318;2024-02-14T00:11:04;94084.72;;;5.93;100.00
6150;BME280;3106;42.670;23.318;2024-02-14T00:13:31;94076.03;;;5.85;100.00
6150;BME280;3106;42.670;23.318;2024-02-14T00:15:59;94123.44;;;6.15;100.00
6150;BME280;3106;42.670;23.318;2024-02-14T00:18:26;94148.81;;;6.33;100.00
6150;BME280;3106;42.670;23.318;2024-02-14T00:20:56;94136.69;;;6.23;100.00
6150;BME280;3106;42.670;23.318;2024-02-14T00:23:26;94151.78;;;6.31;100.00
6150;BME280;3106;42.670;23.318;2024-02-14T00:25:58;94137.63;;;6.19;100.00
6150;BME280;3106;42.670;23.318;2024-02-14T00:28:25;94156.97;;;6.28;100.00
6150;BME280;3106;42.670;23.318;2024-02-14T00:30:54;94162.91;;;6.25;100.00
6150;BME280;3106;42.670;23.318;2024-02-14T00:33:21;94158.19;;;6.30;100.00
6150;BME280;3106;42.670;23.318;2024-02-14T00:35:48;94156.81;;;6.24;100.00
6150;BME280;3106;42.670;23.318;2024-02-14T00:38:17;94140.44;;;6.22;100.00
6150;BME280;3106;42.670;23.318;2024-02-14T00:40:45;94142.63;;;6.20;100.00
6150;BME280;3106;42.670;23.318;2024-02-14T00:43:13;94162.28;;;6.28;100.00
6150;BME280;3106;42.670;23.318;2024-02-14T00:45:41;94101.84;;;6.04;100.00
6150;BME280;3106;42.670;23.318;2024-02-14T00:48:08;94153.97;;;6.29;100.00
6150;BME280;3106;42.670;23.318;2024-02-14T00:50:37;94137.97;;;6.17;100.00
6150;BME280;3106;42.670;23.318;2024-02-14T00:53:06;94160.56;;;6.23;100.00
6150;BME280;3106;42.670;23.318;2024-02-14T00:55:46;94165.03;;;6.31;100.00
6150;BME280;3106;42.670;23.318;2024-02-14T00:58:13;94131.09;;;6.16;100.00
6150;BME280;3106;42.670;23.318;2024-02-14T01:00:41;94092.22;;;5.92;100.00
6150;BME280;3106;42.670;23.318;2024-02-14T01:03:08;94163.63;;;6.34;100.00
6150;BME280;3106;42.670;23.318;2024-02-14T01:05:38;94165.34;;;6.38;100.00
6150;BME280;3106;42.670;23.318;2024-02-14T01:08:05;94158.81;;;6.27;100.00
6150;BME280;3106;42.670;23.318;2024-02-14T01:10:34;94162.84;;;6.33;100.00
6150;BME280;3106;42.670;23.318;2024-02-14T01:13:10;94150.84;;;6.27;100.00
6150;BME280;3106;42.670;23.318;2024-02-14T01:15:38;94167.19;;;6.38;100.00
6150;BME280;3106;42.670;23.318;2024-02-14T01:18:07;94169.25;;;6.32;100.00
6150;BME280;3106;42.670;23.318;2024-02-14T01:20:34;94161.28;;;6.32;100.00
6150;BME280;3106;42.670;23.318;2024-02-14T01:23:02;94152.16;;;6.21;100.00
6150;BME280;3106;42.670;23.318;2024-02-14T01:25:30;94163.28;;;6.35;100.00
6150;BME280;3106;42.670;23.318;2024-02-14T01:27:59;94149.31;;;6.26;100.00
6150;BME280;3106;42.670;23.318;2024-02-14T01:30:29;94152.88;;;6.30;100.00
6150;BME280;3106;42.670;23.318;2024-02-14T01:32:56;94155.97;;;6.32;100.00
6150;BME280;3106;42.670;23.318;2024-02-14T01:35:26;94148.84;;;6.24;100.00
6150;BME280;3106;42.670;23.318;2024-02-14T01:37:53;94162.19;;;6.36;100.00
6150;BME280;3106;42.670;23.318;2024-02-14T01:40:20;94135.31;;;6.17;100.00
6150;BME280;3106;42.670;23.318;2024-02-14T01:42:47;94167.19;;;6.38;100.00
6150;BME280;3106;42.670;23.318;2024-02-14T01:45:15;94132.50;;;6.14;100.00
6150;BME280;3106;42.670;23.318;2024-02-14T01:47:45;94135.97;;;6.14;100.00
6150;BME280;3106;42.670;23.318;2024-02-14T01:50:13;94169.22;;;6.41;100.00
6150;BME280;3106;42.670;23.318;2024-02-14T01:52:44;94157.72;;;6.28;100.00
6150;BME280;3106;42.670;23.318;2024-02-14T01:55:13;94158.13;;;6.39;100.00
6150;BME280;3106;42.670;23.318;2024-02-14T01:57:40;94163.28;;;6.35;100.00
6150;BME280;3106;42.670;23.318;2024-02-14T02:00:10;94114.91;;;6.09;100.00
6150;BME280;3106;42.670;23.318;2024-02-14T02:02:41;94159.09;;;6.34;100.00
6150;BME280;3106;42.670;23.318;2024-02-14T02:05:12;94133.56;;;6.21;100.00
6150;BME280;3106;42.670;23.318;2024-02-14T02:07:39;94145.88;;;6.26;100.00
6150;BME280;3106;42.670;23.318;2024-02-14T02:10:09;94162.84;;;6.33;100.00
6150;BME280;3106;42.670;23.318;2024-02-14T02:12:36;94159.72;;;6.31;100.00
6150;BME280;3106;42.670;23.318;2024-02-14T02:15:05;94114.34;;;5.95;100.00
6150;BME280;3106;42.670;23.318;2024-02-14T02:17:33;94171.78;;;6.29;100.00
6150;BME280;3106;42.670;23.318;2024-02-14T02:20:03;94138.97;;;6.04;100.00
6150;BME280;3106;42.670;23.318;2024-02-14T02:22:36;94179.16;;;6.23;100.00
6150;BME280;3106;42.670;23.318;2024-02-14T02:25:07;94172.09;;;6.27;100.00
6150;BME280;3106;42.670;23.318;2024-02-14T02:27:34;94172.09;;;6.27;100.00
6150;BME280;3106;42.670;23.318;2024-02-14T02:30:06;94177.41;;;6.27;100.00
6150;BME280;3106;42.670;23.318;2024-02-14T02:32:37;94182.06;;;6.30;100.00
6150;BME280;3106;42.670;23.318;2024-02-14T02:35:08;94184.44;;;6.23;100.00
6150;BME280;3106;42.670;23.318;2024-02-14T02:37:37;94124.97;;;5.95;100.00
6150;BME280;3106;42.670;23.318;2024-02-14T02:40:06;94191.47;;;6.28;100.00
6150;BME280;3106;42.670;23.318;2024-02-14T02:42:35;94182.41;;;6.29;99.91
6150;BME280;3106;42.670;23.318;2024-02-14T02:45:03;94153.16;;;6.08;99.39
6150;BME280;3106;42.670;23.318;2024-02-14T02:47:31;94185.69;;;6.26;100.00
6150;BME280;3106;42.670;23.318;2024-02-14T02:49:58;94187.56;;;6.25;100.00
6150;BME280;3106;42.670;23.318;2024-02-14T02:52:29;94192.88;;;6.25;99.68
6150;BME280;3106;42.670;23.318;2024-02-14T02:54:57;94176.53;;;6.15;99.53
6150;BME280;3106;42.670;23.318;2024-02-14T02:57:27;94198.00;;;6.30;99.13
6150;BME280;3106;42.670;23.318;2024-02-14T02:59:56;94209.59;;;6.26;99.07
6150;BME280;3106;42.670;23.318;2024-02-14T03:02:24;94202.38;;;6.26;99.05
6150;BME280;3106;42.670;23.318;2024-02-14T03:04:51;94190.59;;;6.15;98.17
6150;BME280;3106;42.670;23.318;2024-02-14T03:07:19;94196.44;;;6.29;98.08
6150;BME280;3106;42.670;23.318;2024-02-14T03:09:51;94210.34;;;6.26;98.75
6150;BME280;3106;42.670;23.318;2024-02-14T03:12:19;94153.56;;;5.90;97.75
6150;BME280;3106;42.670;23.318;2024-02-14T03:14:51;94182.66;;;6.07;98.55
6150;BME280;3106;42.670;23.318;2024-02-14T03:17:18;94188.75;;;6.07;98.39
6150;BME280;3106;42.670;23.318;2024-02-14T03:19:47;94217.88;;;6.24;98.38
6150;BME280;3106;42.670;23.318;2024-02-14T03:22:18;94222.72;;;6.22;98.84
6150;BME280;3106;42.670;23.318;2024-02-14T03:24:51;94226.91;;;6.23;98.79
6150;BME280;3106;42.670;23.318;2024-02-14T03:27:18;94235.06;;;6.18;98.31
6150;BME280;3106;42.670;23.318;2024-02-14T03:29:50;94239.09;;;6.24;98.38
6150;BME280;3106;42.670;23.318;2024-02-14T03:32:22;94198.59;;;5.98;98.03
6150;BME280;3106;42.670;23.318;2024-02-14T03:34:48;94218.88;;;6.11;97.99
6150;BME280;3106;42.670;23.318;2024-02-14T03:37:17;94249.72;;;6.24;97.66
6150;BME280;3106;42.670;23.318;2024-02-14T03:39:44;94248.78;;;6.20;98.03
6150;BME280;3106;42.670;23.318;2024-02-14T03:42:16;94254.56;;;6.22;98.29
6150;BME280;3106;42.670;23.318;2024-02-14T03:44:45;94237.25;;;6.16;97.22
6150;BME280;3106;42.670;23.318;2024-02-14T03:47:17;94253.81;;;6.22;97.15
6150;BME280;3106;42.670;23.318;2024-02-14T03:49:48;94255.03;;;6.24;96.77
6150;BME280;3106;42.670;23.318;2024-02-14T03:52:18;94256.56;;;6.25;97.09
6150;BME280;3106;42.670;23.318;2024-02-14T03:54:47;94260.78;;;6.26;96.64
6150;BME280;3106;42.670;23.318;2024-02-14T03:57:14;94236.34;;;6.12;96.00
6150;BME280;3106;42.670;23.318;2024-02-14T03:59:43;94223.75;;;6.01;96.11
6150;BME280;3106;42.670;23.318;2024-02-14T04:02:11;94260.97;;;6.21;96.40
6150;BME280;3106;42.670;23.318;2024-02-14T04:04:47;94256.94;;;6.15;96.88
6150;BME280;3106;42.670;23.318;2024-02-14T04:07:14;94260.06;;;6.17;96.94
6150;BME280;3106;42.670;23.318;2024-02-14T04:09:42;94244.66;;;6.02;96.80
6150;BME280;3106;42.670;23.318;2024-02-14T04:12:09;94262.72;;;6.09;96.63
6150;BME280;3106;42.670;23.318;2024-02-14T04:14:41;94273.81;;;6.11;96.39
6150;BME280;3106;42.670;23.318;2024-02-14T04:17:08;94260.88;;;6.09;96.62
6150;BME280;3106;42.670;23.318;2024-02-14T04:19:37;94277.06;;;6.16;96.69
6150;BME280;3106;42.670;23.318;2024-02-14T04:22:07;94271.31;;;6.14;96.08
6150;BME280;3106;42.670;23.318;2024-02-14T04:24:35;94253.88;;;5.96;96.54
6150;BME280;3106;42.670;23.318;2024-02-14T04:27:04;94284.41;;;6.19;95.74
6150;BME280;3106;42.670;23.318;2024-02-14T04:29:33;94273.84;;;6.02;96.88
6150;BME280;3106;42.670;23.318;2024-02-14T04:32:02;94280.84;;;6.07;96.48
6150;BME280;3106;42.670;23.318;2024-02-14T04:34:30;94285.66;;;6.13;96.74
6150;BME280;3106;42.670;23.318;2024-02-14T04:36:57;94295.38;;;6.09;96.19
6150;BME280;3106;42.670;23.318;2024-02-14T04:39:28;94291.16;;;6.08;96.91
6150;BME280;3106;42.670;23.318;2024-02-14T04:41:54;94290.06;;;6.09;97.09
6150;BME280;3106;42.670;23.318;2024-02-14T04:44:24;94293.81;;;6.08;97.71
6150;BME280;3106;42.670;23.318;2024-02-14T04:46:54;94269.81;;;5.88;97.48
6150;BME280;3106;42.670;23.318;2024-02-14T04:49:28;94305.06;;;6.05;98.23
6150;BME280;3106;42.670;23.318;2024-02-14T04:51:56;94293.06;;;5.91;98.19
6150;BME280;3106;42.670;23.318;2024-02-14T04:54:27;94274.50;;;5.83;98.90
6150;BME280;3106;42.670;23.318;2024-02-14T04:56:55;94309.28;;;5.98;98.43
6150;BME280;3106;42.670;23.318;2024-02-14T04:59:25;94312.41;;;6.00;98.37
6150;BME280;3106;42.670;23.318;2024-02-14T05:01:54;94303.34;;;5.93;98.76
6150;BME280;3106;42.670;23.318;2024-02-14T05:04:22;94293.84;;;5.92;98.38
6150;BME280;3106;42.670;23.318;2024-02-14T05:06:49;94303.81;;;5.94;98.75
6150;BME280;3106;42.670;23.318;2024-02-14T05:09:21;94313.66;;;5.94;98.92
6150;BME280;3106;42.670;23.318;2024-02-14T05:11:49;94297.72;;;5.77;98.92
6150;BME280;3106;42.670;23.318;2024-02-14T05:14:17;94324.09;;;5.91;98.79
6150;BME280;3106;42.670;23.318;2024-02-14T05:16:45;94297.59;;;5.74;98.66
6150;BME280;3106;42.670;23.318;2024-02-14T05:19:12;94338.63;;;5.93;98.50
6150;BME280;3106;42.670;23.318;2024-02-14T05:21:39;94331.13;;;5.87;99.21
6150;BME280;3106;42.670;23.318;2024-02-14T05:24:05;94335.34;;;5.88;98.80
6150;BME280;3106;42.670;23.318;2024-02-14T05:26:33;94341.28;;;5.85;98.96
6150;BME280;3106;42.670;23.318;2024-02-14T05:29:01;94348.94;;;5.86;98.94
6150;BME280;3106;42.670;23.318;2024-02-14T05:31:43;94361.88;;;5.88;99.57
6150;BME280;3106;42.670;23.318;2024-02-14T05:34:10;94360.31;;;5.87;99.04
6150;BME280;3106;42.670;23.318;2024-02-14T05:36:37;94373.28;;;5.88;98.78
6150;BME280;3106;42.670;23.318;2024-02-14T05:39:04;94372.94;;;5.81;99.27
6150;BME280;3106;42.670;23.318;2024-02-14T05:41:31;94376.88;;;5.84;99.03
6150;BME280;3106;42.670;23.318;2024-02-14T05:43:58;94383.09;;;5.88;98.32
6150;BME280;3106;42.670;23.318;2024-02-14T05:46:26;94373.91;;;5.85;97.62
6150;BME280;3106;42.670;23.318;2024-02-14T05:48:53;94386.56;;;5.88;98.15
6150;BME280;3106;42.670;23.318;2024-02-14T05:51:22;94382.00;;;5.89;97.71
6150;BME280;3106;42.670;23.318;2024-02-14T05:53:50;94377.97;;;5.83;97.74
6150;BME280;3106;42.670;23.318;2024-02-14T05:56:19;94381.53;;;5.78;97.88
6150;BME280;3106;42.670;23.318;2024-02-14T05:58:46;94390.28;;;5.79;97.84
6150;BME280;3106;42.670;23.318;2024-02-14T06:01:13;94390.09;;;5.75;97.54
6150;BME280;3106;42.670;23.318;2024-02-14T06:03:42;94401.84;;;5.83;97.44
6150;BME280;3106;42.670;23.318;2024-02-14T06:06:09;94410.88;;;5.82;97.34
6150;BME280;3106;42.670;23.318;2024-02-14T06:08:36;94414.31;;;5.82;96.62
6150;BME280;3106;42.670;23.318;2024-02-14T06:11:03;94418.50;;;5.83;96.53
6150;BME280;3106;42.670;23.318;2024-02-14T06:13:30;94412.28;;;5.88;96.12
6150;BME280;3106;42.670;23.318;2024-02-14T06:15:57;94408.69;;;5.84;95.66
6150;BME280;3106;42.670;23.318;2024-02-14T06:18:23;94420.53;;;5.78;95.95
6150;BME280;3106;42.670;23.318;2024-02-14T06:20:51;94416.81;;;5.79;95.87
6150;BME280;3106;42.670;23.318;2024-02-14T06:23:18;94420.69;;;5.81;95.74
6150;BME280;3106;42.670;23.318;2024-02-14T06:25:45;94417.09;;;5.77;95.17
6150;BME280;3106;42.670;23.318;2024-02-14T06:28:12;94423.69;;;5.80;95.36
6150;BME280;3106;42.670;23.318;2024-02-14T06:30:38;94430.72;;;5.84;94.92
6150;BME280;3106;42.670;23.318;2024-02-14T06:33:05;94433.03;;;5.86;94.76
6150;BME280;3106;42.670;23.318;2024-02-14T06:35:32;94438.50;;;5.89;94.40
6150;BME280;3106;42.670;23.318;2024-02-14T06:38:00;94434.91;;;5.93;94.25
6150;BME280;3106;42.670;23.318;2024-02-14T06:40:27;94437.56;;;5.93;94.02
6150;BME280;3106;42.670;23.318;2024-02-14T06:42:54;94426.81;;;5.82;93.88
6150;BME280;3106;42.670;23.318;2024-02-14T06:45:22;94443.97;;;5.93;94.13
6150;BME280;3106;42.670;23.318;2024-02-14T06:47:49;94448.81;;;5.91;93.58
6150;BME280;3106;42.670;23.318;2024-02-14T06:50:17;94446.16;;;5.91;93.49
6150;BME280;3106;42.670;23.318;2024-02-14T06:52:43;94447.72;;;5.92;92.88
6150;BME280;3106;42.670;23.318;2024-02-14T06:55:12;94443.03;;;5.89;93.31
6150;BME280;3106;42.670;23.318;2024-02-14T06:57:39;94451.91;;;5.93;93.43
6150;BME280;3106;42.670;23.318;2024-02-14T07:00:07;94450.81;;;5.93;92.69
6150;BME280;3106;42.670;23.318;2024-02-14T07:02:34;94460.66;;;5.93;92.62
6150;BME280;3106;42.670;23.318;2024-02-14T07:05:01;94463.94;;;5.98;91.90
6150;BME280;3106;42.670;23.318;2024-02-14T07:07:28;94466.00;;;6.01;92.29
6150;BME280;3106;42.670;23.318;2024-02-14T07:09:55;94466.47;;;6.03;91.25
6150;BME280;3106;42.670;23.318;2024-02-14T07:12:23;94467.38;;;6.07;91.62
6150;BME280;3106;42.670;23.318;2024-02-14T07:14:51;94466.75;;;6.10;90.84
6150;BME280;3106;42.670;23.318;2024-02-14T07:17:22;94468.94;;;6.08;90.04
6150;BME280;3106;42.670;23.318;2024-02-14T07:19:49;94484.41;;;6.06;89.89
6150;BME280;3106;42.670;23.318;2024-02-14T07:22:16;94488.16;;;6.05;90.00
6150;BME280;3106;42.670;23.318;2024-02-14T07:24:44;94445.03;;;5.83;89.41
6150;BME280;3106;42.670;23.318;2024-02-14T07:27:11;94484.53;;;6.10;88.94
6150;BME280;3106;42.670;23.318;2024-02-14T07:29:39;94483.94;;;6.04;89.77
6150;BME280;3106;42.670;23.318;2024-02-14T07:32:06;94483.94;;;6.04;89.97
6150;BME280;3106;42.670;23.318;2024-02-14T07:34:34;94484.06;;;6.08;89.82
6150;BME280;3106;42.670;23.318;2024-02-14T07:37:01;94490.50;;;6.15;88.52
6150;BME280;3106;42.670;23.318;2024-02-14T07:39:28;94486.41;;;6.18;88.93
6150;BME280;3106;42.670;23.318;2024-02-14T07:41:56;94486.59;;;6.21;89.06
6150;BME280;3106;42.670;23.318;2024-02-14T07:44:23;94487.97;;;6.27;87.74
6150;BME280;3106;42.670;23.318;2024-02-14T07:46:51;94478.31;;;6.23;88.15
6150;BME280;3106;42.670;23.318;2024-02-14T07:49:18;94484.09;;;6.16;87.47
6150;BME280;3106;42.670;23.318;2024-02-14T07:51:46;94489.38;;;6.08;88.22
6150;BME280;3106;42.670;23.318;2024-02-14T07:54:13;94477.69;;;5.92;88.78
6150;BME280;3106;42.670;23.318;2024-02-14T07:56:41;94496.88;;;5.97;89.78
6150;BME280;3106;42.670;23.318;2024-02-14T07:59:07;94504.53;;;5.99;90.25
6150;BME280;3106;42.670;23.318;2024-02-14T08:01:34;94506.09;;;6.08;90.62
6150;BME280;3106;42.670;23.318;2024-02-14T08:04:02;94510.59;;;5.99;90.62
6150;BME280;3106;42.670;23.318;2024-02-14T08:06:30;94474.06;;;5.80;91.38
6150;BME280;3106;42.670;23.318;2024-02-14T08:08:58;94510.00;;;6.11;90.98
6150;BME280;3106;42.670;23.318;2024-02-14T08:11:27;94490.31;;;5.87;90.42
6150;BME280;3106;42.670;23.318;2024-02-14T08:13:54;94511.09;;;5.93;90.96
6150;BME280;3106;42.670;23.318;2024-02-14T08:16:21;94509.19;;;5.93;90.95
6150;BME280;3106;42.670;23.318;2024-02-14T08:18:50;94522.16;;;5.95;91.67
6150;BME280;3106;42.670;23.318;2024-02-14T08:21:25;94527.63;;;5.98;91.14
6150;BME280;3106;42.670;23.318;2024-02-14T08:23:54;94514.22;;;5.95;91.90
6150;BME280;3106;42.670;23.318;2024-02-14T08:26:22;94540.28;;;5.93;91.18
6150;BME280;3106;42.670;23.318;2024-02-14T08:28:50;94525.59;;;5.87;90.47
6150;BME280;3106;42.670;23.318;2024-02-14T08:31:17;94526.69;;;5.86;90.59
6150;BME280;3106;42.670;23.318;2024-02-14T08:33:44;94540.41;;;5.88;90.84
6150;BME280;3106;42.670;23.318;2024-02-14T08:36:11;94536.34;;;5.91;90.72
6150;BME280;3106;42.670;23.318;2024-02-14T08:38:39;94541.50;;;5.95;90.47
6150;BME280;3106;42.670;23.318;2024-02-14T08:41:06;94533.53;;;5.95;90.20
6150;BME280;3106;42.670;23.318;2024-02-14T08:43:33;94537.91;;;5.92;89.41
6150;BME280;3106;42.670;23.318;2024-02-14T08:46:00;94536.34;;;5.91;88.42
6150;BME280;3106;42.670;23.318;2024-02-14T08:48:28;94513.50;;;5.73;89.32
6150;BME280;3106;42.670;23.318;2024-02-14T08:50:58;94552.25;;;5.91;89.13
6150;BME280;3106;42.670;23.318;2024-02-14T08:53:25;94546.97;;;5.91;89.43
6150;BME280;3106;42.670;23.318;2024-02-14T08:55:53;94560.56;;;5.89;89.71
6150;BME280;3106;42.670;23.318;2024-02-14T08:58:23;94560.84;;;5.88;89.20
6150;BME280;3106;42.670;23.318;2024-02-14T09:00:50;94558.69;;;5.98;89.15
6150;BME280;3106;42.670;23.318;2024-02-14T09:03:17;94557.28;;;6.00;88.85
6150;BME280;3106;42.670;23.318;2024-02-14T09:05:44;94562.56;;;6.00;88.45
6150;BME280;3106;42.670;23.318;2024-02-14T09:08:12;94569.63;;;6.05;87.98
6150;BME280;3106;42.670;23.318;2024-02-14T09:10:38;94564.03;;;6.06;87.77
6150;BME280;3106;42.670;23.318;2024-02-14T09:13:10;94571.47;;;5.88;87.69
6150;BME280;3106;42.670;23.318;2024-02-14T09:15:37;94558.63;;;5.81;88.37
6150;BME280;3106;42.670;23.318;2024-02-14T09:18:04;94564.38;;;5.75;88.90
6150;BME280;3106;42.670;23.318;2024-02-14T09:20:36;94566.38;;;5.69;89.77
6150;BME280;3106;42.670;23.318;2024-02-14T09:23:04;94572.38;;;5.83;90.19
6150;BME280;3106;42.670;23.318;2024-02-14T09:25:30;94573.56;;;5.77;89.50
6150;BME280;3106;42.670;23.318;2024-02-14T09:27:57;94574.38;;;5.78;89.98
6150;BME280;3106;42.670;23.318;2024-02-14T09:30:30;94576.84;;;5.74;90.86
6150;BME280;3106;42.670;23.318;2024-02-14T09:33:00;94573.44;;;5.74;90.97
6150;BME280;3106;42.670;23.318;2024-02-14T09:35:27;94581.06;;;5.75;90.91
6150;BME280;3106;42.670;23.318;2024-02-14T09:37:54;94566.38;;;5.69;90.48
6150;BME280;3106;42.670;23.318;2024-02-14T09:40:26;94583.72;;;5.67;90.75
6150;BME280;3106;42.670;23.318;2024-02-14T09:42:55;94567.66;;;5.72;89.77
6150;BME280;3106;42.670;23.318;2024-02-14T09:45:25;94558.84;;;5.54;89.40
6150;BME280;3106;42.670;23.318;2024-02-14T09:48:02;94566.81;;;5.63;88.58
6150;BME280;3106;42.670;23.318;2024-02-14T09:50:32;94583.31;;;5.82;89.19
6150;BME280;3106;42.670;23.318;2024-02-14T09:53:02;94578.00;;;5.82;88.23
6150;BME280;3106;42.670;23.318;2024-02-14T09:55:38;94568.59;;;5.76;88.36
6150;BME280;3106;42.670;23.318;2024-02-14T09:58:09;94565.16;;;5.75;88.10
6150;BME280;3106;42.670;23.318;2024-02-14T10:00:36;94564.56;;;5.78;88.30
6150;BME280;3106;42.670;23.318;2024-02-14T10:03:14;94562.44;;;5.97;87.03
6150;BME280;3106;42.670;23.318;2024-02-14T10:05:41;94568.81;;;5.88;86.73
6150;BME280;3106;42.670;23.318;2024-02-14T10:08:14;94558.50;;;5.94;86.60
6150;BME280;3106;42.670;23.318;2024-02-14T10:10:41;94563.06;;;5.94;86.90
6150;BME280;3106;42.670;23.318;2024-02-14T10:13:11;94573.81;;;5.97;86.74
6150;BME280;3106;42.670;23.318;2024-02-14T10:15:40;94571.16;;;5.97;86.49
6150;BME280;3106;42.670;23.318;2024-02-14T10:18:07;94560.56;;;6.06;86.47
6150;BME280;3106;42.670;23.318;2024-02-14T10:20:41;94568.03;;;5.95;85.73
6150;BME280;3106;42.670;23.318;2024-02-14T10:23:19;94547.66;;;5.74;86.54
6150;BME280;3106;42.670;23.318;2024-02-14T10:25:48;94563.19;;;5.97;86.59
6150;BME280;3106;42.670;23.318;2024-02-14T10:28:20;94512.69;;;5.64;85.82
6150;BME280;3106;42.670;23.318;2024-02-14T10:30:59;94553.81;;;5.92;85.75
6150;BME280;3106;42.670;23.318;2024-02-14T10:33:28;94570.41;;;6.05;85.85
6150;BME280;3106;42.670;23.318;2024-02-14T10:36:07;94561.50;;;6.10;86.03
6150;BME280;3106;42.670;23.318;2024-02-14T10:38:36;94567.00;;;6.30;84.60
6150;BME280;3106;42.670;23.318;2024-02-14T10:41:04;94530.75;;;6.09;83.89
6150;BME280;3106;42.670;23.318;2024-02-14T10:43:40;94550.94;;;6.27;83.20
6150;BME280;3106;42.670;23.318;2024-02-14T10:46:09;94562.16;;;6.41;83.12
6150;BME280;3106;42.670;23.318;2024-02-14T10:48:41;94560.44;;;6.45;82.61
6150;BME280;3106;42.670;23.318;2024-02-14T10:51:13;94557.03;;;6.44;82.93
6150;BME280;3106;42.670;23.318;2024-02-14T10:53:44;94563.28;;;6.48;82.85
6150;BME280;3106;42.670;23.318;2024-02-14T10:56:15;94567.47;;;6.32;82.33
6150;BME280;3106;42.670;23.318;2024-02-14T10:58:52;94559.03;;;6.30;83.00
6150;BME280;3106;42.670;23.318;2024-02-14T11:01:39;94562.00;;;6.29;82.80
6150;BME280;3106;42.670;23.318;2024-02-14T11:04:08;94569.03;;;6.25;83.98
6150;BME280;3106;42.670;23.318;2024-02-14T11:06:45;94563.56;;;6.21;83.19
6150;BME280;3106;42.670;23.318;2024-02-14T11:09:14;94577.78;;;6.25;84.20
6150;BME280;3106;42.670;23.318;2024-02-14T11:11:42;94557.31;;;6.17;82.95
6150;BME280;3106;42.670;23.318;2024-02-14T11:14:14;94562.59;;;6.09;83.77
6150;BME280;3106;42.670;23.318;2024-02-14T11:16:45;94508.69;;;5.83;83.91
6150;BME280;3106;42.670;23.318;2024-02-14T11:19:13;94576.69;;;6.26;84.35
6150;BME280;3106;42.670;23.318;2024-02-14T11:21:42;94568.09;;;6.29;83.68
6150;BME280;3106;42.670;23.318;2024-02-14T11:24:15;94524.22;;;6.06;83.40
6150;BME280;3106;42.670;23.318;2024-02-14T11:26:49;94569.84;;;6.42;83.00
6150;BME280;3106;42.670;23.318;2024-02-14T11:29:17;94569.97;;;6.37;82.69
6150;BME280;3106;42.670;23.318;2024-02-14T11:31:44;94576.69;;;6.35;83.37
6150;BME280;3106;42.670;23.318;2024-02-14T11:34:13;94569.34;;;6.32;82.68
6150;BME280;3106;42.670;23.318;2024-02-14T11:36:44;94572.63;;;6.37;83.22
6150;BME280;3106;42.670;23.318;2024-02-14T11:39:13;94565.28;;;6.34;82.33
6150;BME280;3106;42.670;23.318;2024-02-14T11:41:42;94573.09;;;6.31;82.32
6150;BME280;3106;42.670;23.318;2024-02-14T11:44:10;94577.00;;;6.33;82.80
6150;BME280;3106;42.670;23.318;2024-02-14T11:46:39;94560.28;;;6.24;82.92
6150;BME280;3106;42.670;23.318;2024-02-14T11:49:07;94571.38;;;6.35;82.26
6150;BME280;3106;42.670;23.318;2024-02-14T11:51:35;94573.88;;;6.40;82.46
6150;BME280;3106;42.670;23.318;2024-02-14T11:54:07;94546.56;;;6.31;82.41
6150;BME280;3106;42.670;23.318;2024-02-14T11:56:40;94572.34;;;6.47;82.57
6150;BME280;3106;42.670;23.318;2024-02-14T11:59:08;94565.13;;;6.48;82.16
6150;BME280;3106;42.670;23.318;2024-02-14T12:01:37;94550.00;;;6.23;82.05
6150;BME280;3106;42.670;23.318;2024-02-14T12:04:07;94575.16;;;6.42;81.30
6150;BME280;3106;42.670;23.318;2024-02-14T12:06:40;94571.56;;;6.38;81.55
6150;BME280;3106;42.670;23.318;2024-02-14T12:09:09;94564.97;;;6.36;82.12
6150;BME280;3106;42.670;23.318;2024-02-14T12:11:41;94555.28;;;6.31;81.18
6150;BME280;3106;42.670;23.318;2024-02-14T12:14:09;94554.97;;;6.33;81.88
6150;BME280;3106;42.670;23.318;2024-02-14T12:16:39;94569.84;;;6.42;82.12
6150;BME280;3106;42.670;23.318;2024-02-14T12:19:07;94564.66;;;6.46;82.12
6150;BME280;3106;42.670;23.318;2024-02-14T12:21:35;94525.31;;;6.31;82.18
6150;BME280;3106;42.670;23.318;2024-02-14T12:24:04;94563.88;;;6.62;82.16
6150;BME280;3106;42.670;23.318;2024-02-14T12:26:32;94556.38;;;6.64;80.50
6150;BME280;3106;42.670;23.318;2024-02-14T12:29:02;94550.75;;;6.66;80.42
6150;BME280;3106;42.670;23.318;2024-02-14T12:31:31;94559.50;;;6.66;80.13
6150;BME280;3106;42.670;23.318;2024-02-14T12:33:59;94552.78;;;6.69;79.58
6150;BME280;3106;42.670;23.318;2024-02-14T12:36:28;94496.72;;;6.36;80.17
6150;BME280;3106;42.670;23.318;2024-02-14T12:38:56;94548.88;;;6.66;80.11
6150;BME280;3106;42.670;23.318;2024-02-14T12:41:27;94561.84;;;6.76;80.00
6150;BME280;3106;42.670;23.318;2024-02-14T12:43:57;94546.84;;;6.72;79.66
6150;BME280;3106;42.670;23.318;2024-02-14T12:46:26;94558.41;;;6.76;79.54
6150;BME280;3106;42.670;23.318;2024-02-14T12:48:53;94545.91;;;6.76;79.17
6150;BME280;3106;42.670;23.318;2024-02-14T12:51:20;94544.19;;;6.72;78.86
6150;BME280;3106;42.670;23.318;2024-02-14T12:53:53;94562.78;;;6.80;78.65
6150;BME280;3106;42.670;23.318;2024-02-14T12:56:22;94555.13;;;6.79;78.72
6150;BME280;3106;42.670;23.318;2024-02-14T12:58:49;94543.09;;;6.64;78.82
6150;BME280;3106;42.670;23.318;2024-02-14T13:01:15;94569.97;;;6.80;78.33
6150;BME280;3106;42.670;23.318;2024-02-14T13:03:45;94561.53;;;6.86;79.15
6150;BME280;3106;42.670;23.318;2024-02-14T13:06:12;94561.22;;;6.79;78.42
6150;BME280;3106;42.670;23.318;2024-02-14T13:08:39;94569.78;;;6.93;78.17
6150;BME280;3106;42.670;23.318;2024-02-14T13:11:06;94571.97;;;6.91;77.84
6150;BME280;3106;42.670;23.318;2024-02-14T13:13:34;94575.09;;;6.93;78.20
6150;BME280;3106;42.670;23.318;2024-02-14T13:16:01;94568.06;;;6.89;77.65
6150;BME280;3106;42.670;23.318;2024-02-14T13:18:29;94546.06;;;6.71;78.01
6150;BME280;3106;42.670;23.318;2024-02-14T13:20:57;94575.09;;;6.93;77.54
6150;BME280;3106;42.670;23.318;2024-02-14T13:23:26;94575.09;;;6.93;76.83
6150;BME280;3106;42.670;23.318;2024-02-14T13:25:53;94576.03;;;6.97;76.60
6150;BME280;3106;42.670;23.318;2024-02-14T13:28:20;94546.38;;;6.78;76.31